Flight Track Log - Related Links

Times and Time Zones

All times are in EDT time to prevent confusion due to time zone crossing. See the EJA941 flight status page for this flight to view local times or setup timezone preferences in your user account.

Time Position Orientation Groundspeed Altitude Reporting Facility
EDT Latitude Longitude Course Direction KTS MPH feet Rate Location/Type
Tue 11:52:21 AM 33.7833 -84.5667 331° Northwest 197 227 2,700  Level Atlanta TRACON
Tue 11:53:21 AM 33.8333 -84.6000 331° Northwest 220 253 5,000 1,976 Climbing Atlanta TRACON
Tue 11:55:08 AM 33.9497 -84.5422 22° Northeast 252 290 8,200 1,904 Climbing Atlanta Center
Tue 11:56:08 AM 34.0231 -84.4900 31° Northeast 284 327 10,300 1,950 Climbing Atlanta Center
Tue 11:57:08 AM 34.1067 -84.4353 28° Northeast 322 371 12,100 1,900 Climbing Atlanta Center
Tue 11:58:08 AM 34.2028 -84.4056 14° North 346 398 14,100 1,900 Climbing Atlanta Center
Tue 11:59:08 AM 34.3008 -84.3758 14° North 361 415 15,900 1,488 Climbing Atlanta Center
Tue 12:00:09 PM 34.3928 -84.3508 13° North 361 415 17,100 1,400 Climbing Atlanta Center
Tue 12:01:08 PM 34.4994 -84.3186 14° North 378 435 18,700 1,664 Climbing Atlanta Center
Tue 12:02:08 PM 34.6081 -84.2886 13° North 384 442 20,400 1,550 Climbing Atlanta Center
Tue 12:03:08 PM 34.7167 -84.2536 15° North 396 456 21,800 1,500 Climbing Atlanta Center
Tue 12:04:08 PM 34.8314 -84.2183 14° North 406 467 23,400 1,600 Climbing Atlanta Center
Tue 12:05:08 PM 34.9525 -84.1833 13° North 406 467 25,000 800 Climbing Atlanta Center
Tue 12:06:08 PM 35.0714 -84.1478 14° North 418 481 25,000  Level Atlanta Center
Tue 12:07:08 PM 35.1986 -84.1100 14° North 444 511 25,000  Level Atlanta Center
Tue 12:08:08 PM 35.3303 -84.0719 13° North 470 541 25,000  Level Atlanta Center
Tue 12:09:08 PM 35.4681 -84.0286 14° North 492 566 25,000 500 Level Atlanta Center
Tue 12:10:08 PM 35.6036 -83.9878 14° North 497 572 26,000 1,000 Climbing Atlanta Center
Tue 12:11:08 PM 35.7328 -83.9492 14° North 485 558 27,000 1,000 Climbing Atlanta Center
Tue 12:12:08 PM 35.8642 -83.9081 14° North 485 558 28,000 500 Climbing Atlanta Center
Tue 12:13:08 PM 35.9978 -83.8567 17° North 485 558 28,000 450 Level Atlanta Center
Tue 12:14:08 PM 36.1311 -83.8022 18° North 498 573 28,900 1,350 Climbing Atlanta Center
Tue 12:15:08 PM 36.2603 -83.7453 20° North 498 573 30,700 1,350 Climbing Atlanta Center
Tue 12:16:08 PM 36.3872 -83.6931 18° North 485 558 31,600 1,033 Climbing Atlanta Center
Tue 12:17:39 PM 36.5847 -83.6106 19° North 506 582 33,300 1,461 Climbing Indianapolis Center
Tue 12:18:40 PM 36.7136 -83.5539 19° North 489 563 35,300 2,488 Climbing Indianapolis Center
Tue 12:19:42 PM 36.8339 -83.5036 18° North 459 528 38,400 2,244 Climbing Indianapolis Center
Tue 12:20:43 PM 36.9411 -83.4228 31° Northeast 446 513 39,900 1,268 Climbing Indianapolis Center
Tue 12:21:45 PM 37.0425 -83.3147 40° Northeast 473 544 41,000 537 Climbing Indianapolis Center
Tue 12:22:46 PM 37.1417 -83.1883 45° Northeast 501 577 41,000  Level Indianapolis Center
Tue 12:23:48 PM 37.2447 -83.0561 46° Northeast 524 603 41,000  Level Indianapolis Center
Tue 12:24:49 PM 37.3494 -82.9211 46° Northeast 533 613 41,000  Level Indianapolis Center
Tue 12:25:51 PM 37.4736 -82.7606 46° Northeast 545 627 41,000  Level Indianapolis Center
Tue 12:26:52 PM 37.5803 -82.6242 45° Northeast 547 629 41,000  Level Indianapolis Center
Tue 12:27:54 PM 37.6872 -82.4861 46° Northeast 548 631 41,000  Level Indianapolis Center
Tue 12:28:55 PM 37.7922 -82.3483 46° Northeast 545 627 41,000  Level Indianapolis Center
Tue 12:29:57 PM 37.8989 -82.2106 46° Northeast 547 629 41,000  Level Indianapolis Center
Tue 12:30:58 PM 37.9975 -82.0831 46° Northeast 548 631 41,000  Level Indianapolis Center
Tue 12:31:59 PM 38.1036 -81.9439 46° Northeast 550 633 41,000  Level Indianapolis Center
Tue 12:33:01 PM 38.2297 -81.7758 46° Northeast 548 631 41,000  Level Indianapolis Center
Tue 12:34:02 PM 38.3353 -81.6367 46° Northeast 550 633 41,000  Level Indianapolis Center
Tue 12:35:04 PM 38.4394 -81.4947 47° Northeast 553 636 41,000  Level Indianapolis Center
Tue 12:36:05 PM 38.5453 -81.3528 46° Northeast 561 646 41,000  Level Indianapolis Center
Tue 12:37:07 PM 38.6508 -81.2106 46° Northeast 563 648 41,000  Level Indianapolis Center
Tue 12:38:08 PM 38.7567 -81.0686 46° Northeast 559 643 41,000  Level Indianapolis Center
Tue 12:39:10 PM 38.8831 -80.8958 47° Northeast 557 641 41,000  Level Indianapolis Center
Tue 12:40:11 PM 38.9900 -80.7494 47° Northeast 562 647 41,000  Level Indianapolis Center
Tue 12:41:13 PM 39.0969 -80.6025 47° Northeast 561 646 41,000  Level Indianapolis Center
Tue 12:42:14 PM 39.2042 -80.4553 47° Northeast 564 649 41,000  Level Indianapolis Center
Tue 12:43:16 PM 39.3103 -80.3067 47° Northeast 563 648 41,000  Level Indianapolis Center
Tue 12:44:17 PM 39.4167 -80.1592 47° Northeast 562 647 41,000  Level Indianapolis Center
Tue 12:45:19 PM 39.5228 -80.0111 47° Northeast 563 648 41,000  Level Indianapolis Center
Tue 12:46:20 PM 39.6286 -79.8608 48° Northeast 563 648 41,000  Level Indianapolis Center
Tue 12:47:22 PM 39.7578 -79.6811 47° Northeast 567 652 41,000  Level Indianapolis Center
Tue 12:48:24 PM 39.8619 -79.5314 48° Northeast 559 643 41,000  Level Indianapolis Center
Tue 12:49:35 PM 39.9917 -79.3500 47° Northeast 555 639 41,000  Level Cleveland Center
Tue 12:50:35 PM 40.0922 -79.2017 48° Northeast 555 639 41,000  Level Cleveland Center
Tue 12:51:35 PM 40.2008 -79.0500 47° Northeast 555 639 41,000  Level Cleveland Center
Tue 12:52:35 PM 40.3028 -78.8981 49° Northeast 555 639 41,000  Level Cleveland Center
Tue 12:53:35 PM 40.4089 -78.7425 48° Northeast 555 639 41,000  Level Cleveland Center
Tue 12:54:35 PM 40.5147 -78.5894 48° Northeast 555 639 41,000  Level Cleveland Center
Tue 12:57:02 PM 40.7578 -78.2264 48° Northeast 571 657 41,000  Level New York Center
Tue 12:58:03 PM 40.8633 -78.0703 48° Northeast 571 657 41,000  Level New York Center
Tue 12:59:01 PM 40.9572 -77.8989 54° Northeast 571 657 41,000  Level New York Center
Tue 01:00:01 PM 41.0392 -77.7150 59° Northeast 571 657 41,000  Level New York Center
Tue 01:01:02 PM 41.1203 -77.5358 59° Northeast 565 650 41,000  Level New York Center
Tue 01:02:03 PM 41.2089 -77.3322 60° Northeast 572 658 41,000  Level New York Center
Tue 01:03:03 PM 41.2897 -77.1467 60° Northeast 572 658 41,000  Level New York Center
Tue 01:04:01 PM 41.3706 -76.9608 60° Northeast 572 658 41,000  Level New York Center
Tue 01:05:01 PM 41.4508 -76.7772 60° Northeast 572 658 41,000  Level New York Center
Tue 01:06:01 PM 41.5328 -76.5933 59° Northeast 572 658 41,000  Level New York Center
Tue 01:07:02 PM 41.6036 -76.4219 61° Northeast 572 658 41,000  Level New York Center
Tue 01:08:03 PM 41.6811 -76.2342 61° Northeast 572 658 41,000  Level New York Center
Tue 01:10:19 PM 41.8739 -75.7778 60° Northeast 575 662 41,000  Level Boston Center
Tue 01:11:19 PM 41.9500 -75.5919 61° Northeast 570 656 41,000  Level Boston Center
Tue 01:12:19 PM 42.0242 -75.4000 62° Northeast 570 656 41,000  Level Boston Center
Tue 01:13:19 PM 42.1019 -75.2047 62° Northeast 570 656 41,000  Level Boston Center
Tue 01:14:19 PM 42.1731 -75.0147 63° Northeast 564 649 41,000  Level Boston Center
Tue 01:15:19 PM 42.2461 -74.8269 62° Northeast 569 655 41,000  Level Boston Center
Tue 01:16:19 PM 42.3208 -74.6303 63° Northeast 574 661 41,000  Level Boston Center
Tue 01:17:19 PM 42.3953 -74.4333 63° Northeast 574 661 41,000  Level Boston Center
Tue 01:18:19 PM 42.4628 -74.2611 62° Northeast 574 661 41,000  Level Boston Center
Tue 01:19:19 PM 42.5367 -74.0631 63° Northeast 574 661 41,000  Level Boston Center
Tue 01:20:19 PM 42.6147 -73.8450 64° Northeast 569 655 41,000  Level Boston Center
Tue 01:21:19 PM 42.6814 -73.6742 62° Northeast 569 655 41,000  Level Boston Center
Tue 01:22:19 PM 42.7542 -73.4750 63° Northeast 569 655 41,000  Level Boston Center
Tue 01:23:19 PM 42.8244 -73.2808 64° Northeast 569 655 41,000  Level Boston Center
Tue 01:24:19 PM 42.9008 -73.0636 64° Northeast 569 655 41,000  Level Boston Center
Tue 01:25:19 PM 42.9622 -72.8828 65° Northeast 569 655 41,000  Level Boston Center
Tue 01:26:19 PM 43.0317 -72.6844 64° Northeast 569 655 41,000  Level Boston Center
Tue 01:27:19 PM 43.1028 -72.5083 61° Northeast 575 662 41,000  Level Boston Center
Tue 01:28:19 PM 43.1839 -72.2636 65° Northeast 580 667 41,000  Level Boston Center
Tue 01:29:19 PM 43.2542 -72.0639 64° Northeast 580 667 41,000  Level Boston Center
Tue 01:30:19 PM 43.3222 -71.8664 65° Northeast 575 662 41,000  Level Boston Center
Tue 01:31:19 PM 43.3878 -71.6631 66° East 575 662 41,000  Level Boston Center
Tue 01:32:19 PM 43.4592 -71.4589 64° Northeast 575 662 41,000  Level Boston Center
Tue 01:33:19 PM 43.5258 -71.2575 65° Northeast 575 662 41,000 -450 Level Boston Center
Tue 01:34:19 PM 43.5925 -71.0728 63° Northeast 575 662 40,100 -1,300 Descending Boston Center
Tue 01:35:19 PM 43.6608 -70.8644 66° East 581 669 38,400 -1,800 Descending Boston Center
Tue 01:36:19 PM 43.7264 -70.6558 66° East 589 678 36,500 -1,850 Descending Boston Center
Tue 01:37:19 PM 43.7958 -70.4411 66° East 596 686 34,700 -1,800 Descending Boston Center
Tue 01:38:19 PM 43.8689 -70.2197 65° Northeast 607 699 32,900 -1,850 Descending Boston Center
Tue 01:39:19 PM 43.9247 -69.9900 71° East 622 716 31,000 -1,950 Descending Boston Center
Tue 01:40:19 PM 43.9464 -69.7467 83° East 628 723 29,000 -2,000 Descending Boston Center
Tue 01:41:19 PM 43.9678 -69.5119 83° East 621 715 27,000 -2,200 Descending Boston Center
Tue 01:42:19 PM 44.0186 -69.3075 71° East 591 680 24,600 -2,700 Descending Boston Center
Tue 01:43:19 PM 44.1014 -69.1353 56° Northeast 549 632 21,600 -2,727 Descending Boston Center
Tue 01:44:31 PM 44.1778 -68.9719 57° Northeast 524 603 18,600 -3,000 Descending Boston Center
Tue 01:45:31 PM 44.2319 -68.7658 70° East 487 560 15,000 -3,350 Descending Boston Center
Tue 01:46:31 PM 44.2683 -68.6069 72° East 456 525 11,900 -3,000 Descending Boston Center
Tue 01:47:31 PM 44.2967 -68.4600 75° East 404 465 9,000 -2,650 Descending Boston Center
Tue 01:48:31 PM 44.3300 -68.3444 68° East 347 399 6,600 -2,350 Descending Boston Center
Tue 01:49:31 PM 44.3925 -68.2819 36° Northeast 271 312 4,300 -1,650 Descending Boston Center
Tue 01:50:31 PM 44.4489 -68.2228 37° Northeast 261 300 3,300 3,350 Descending Boston Center
Tue 01:51:31 PM 44.5025 -68.1519 43° Northeast 261 300 11,000 3,850 Climbing Boston Center
Tue 01:52:31 PM 44.5583 -68.0839 41° Northeast 261 300 11,000  Level Boston Center
Tue 01:53:31 PM 44.6117 -68.0128 43° Northeast 261 300 11,000  Level Boston Center
Tue 01:54:31 PM 44.6556 -67.9569 42° Northeast 261 300 11,000  Level Boston Center
Tue 01:55:31 PM 44.6556 -67.9569 215° Southwest 261 300 11,000  Level Boston Center

Login

Don't have an account? Register now (free) for customized features, flight alerts, and more!